Time;durP1;ratioP1;P1;durP2;ratioP2;P2;SDS_P1;SDS_P2;PMS_P1;PMS_P2;Temp;Humidity;BMP_temperature;BMP_pressure;BME280_temperature;BME280_humidity;BME280_pressure;Samples;Min_cycle;Max_cycle;Signal;HPM_P1;HPM_P2
2020/12/13 00:00:25;;;;;;;60.20;24.80;;;9.40;99.90;;;;;;5042827;28;20480;-67
2020/12/13 00:02:52;;;;;;;45.20;24.50;;;9.40;99.90;;;;;;5042981;28;20485;-68
2020/12/13 00:05:18;;;;;;;39.27;25.67;;;9.40;99.90;;;;;;5042203;28;20456;-68
2020/12/13 00:07:44;;;;;;;40.80;22.03;;;9.50;99.90;;;;;;5042775;28;20440;-68
2020/12/13 00:10:11;;;;;;;39.63;22.27;;;9.40;99.90;;;;;;5042318;28;20478;-68
2020/12/13 00:12:38;;;;;;;44.67;24.67;;;9.50;99.90;;;;;;5042059;28;20463;-68
2020/12/13 00:15:04;;;;;;;45.47;23.33;;;9.50;99.90;;;;;;5041864;28;20445;-66
2020/12/13 00:17:30;;;;;;;47.17;23.93;;;9.50;99.90;;;;;;5041610;28;20445;-67
2020/12/13 00:19:57;;;;;;;46.17;25.73;;;9.50;99.90;;;;;;5041908;28;20468;-68
2020/12/13 00:22:23;;;;;;;46.23;24.00;;;9.60;99.90;;;;;;5042533;28;20485;-68
2020/12/13 00:24:50;;;;;;;43.43;24.57;;;9.50;99.90;;;;;;5041407;28;20451;-68
2020/12/13 00:27:17;;;;;;;38.97;25.07;;;9.60;99.90;;;;;;5041511;28;20448;-68
2020/12/13 00:29:43;;;;;;;47.03;26.43;;;9.50;99.90;;;;;;5041678;28;20445;-68
2020/12/13 00:32:09;;;;;;;45.77;24.47;;;9.50;99.90;;;;;;5041903;28;20445;-68
2020/12/13 00:34:36;;;;;;;54.53;23.70;;;9.60;99.90;;;;;;5041661;28;20453;-68
2020/12/13 00:37:02;;;;;;;40.60;26.13;;;9.60;99.90;;;;;;5041348;28;20448;-68
2020/12/13 00:39:28;;;;;;;43.50;25.87;;;9.60;99.90;;;;;;5041263;28;20433;-67
2020/12/13 00:41:55;;;;;;;52.60;24.90;;;9.50;99.90;;;;;;5041309;28;20475;-67
2020/12/13 00:44:22;;;;;;;45.47;23.77;;;9.50;99.90;;;;;;5041843;28;20457;-67
2020/12/13 00:46:49;;;;;;;43.50;25.87;;;9.40;99.90;;;;;;5040383;28;20452;-67
2020/12/13 00:49:15;;;;;;;43.77;24.50;;;9.50;99.90;;;;;;5039949;28;20449;-68
2020/12/13 00:51:43;;;;;;;45.53;26.67;;;9.40;99.90;;;;;;5039852;28;20490;-68
2020/12/13 00:54:09;;;;;;;44.30;26.10;;;9.50;99.90;;;;;;5039295;28;20930;-67
2020/12/13 00:56:35;;;;;;;42.20;24.27;;;9.50;99.90;;;;;;5040096;28;20831;-68
2020/12/13 00:59:03;;;;;;;53.70;24.63;;;9.50;99.90;;;;;;5039604;28;20459;-67
2020/12/13 01:01:30;;;;;;;52.20;26.20;;;9.40;99.90;;;;;;5040427;28;20458;-68
2020/12/13 01:03:56;;;;;;;42.37;25.37;;;9.40;99.90;;;;;;5040300;28;20489;-68
2020/12/13 01:06:23;;;;;;;47.93;24.10;;;9.50;99.90;;;;;;5040480;28;20460;-68
2020/12/13 01:08:50;;;;;;;43.47;22.40;;;9.40;99.90;;;;;;5040090;28;20459;-69
2020/12/13 01:11:24;;;;;;;45.07;24.20;;;9.40;99.90;;;;;;5038921;28;20472;-68
2020/12/13 01:13:51;;;;;;;43.97;24.90;;;9.40;99.90;;;;;;5037221;28;20914;-67
2020/12/13 01:16:18;;;;;;;44.70;25.30;;;9.40;99.90;;;;;;5031860;28;20448;-67
2020/12/13 01:18:45;;;;;;;38.80;23.40;;;9.40;99.90;;;;;;5031640;28;20437;-67
2020/12/13 01:21:16;;;;;;;42.07;23.80;;;9.40;99.90;;;;;;5031198;28;20465;-66
2020/12/13 01:23:43;;;;;;;43.00;26.03;;;9.40;99.90;;;;;;5031486;28;20476;-67
2020/12/13 01:26:11;;;;;;;39.20;24.07;;;9.30;99.90;;;;;;5031585;28;20858;-67
2020/12/13 01:28:37;;;;;;;46.90;25.80;;;9.30;99.90;;;;;;5031643;28;20437;-66
2020/12/13 01:31:03;;;;;;;42.27;24.57;;;9.40;99.90;;;;;;5031188;28;20464;-66
2020/12/13 01:33:29;;;;;;;52.67;27.27;;;9.40;99.90;;;;;;5031494;28;20456;-67
2020/12/13 01:35:57;;;;;;;49.37;27.80;;;9.40;99.90;;;;;;5031477;28;20445;-67
2020/12/13 01:38:23;;;;;;;38.63;25.27;;;9.40;99.90;;;;;;5031428;28;20449;-67
2020/12/13 01:40:54;;;;;;;43.23;26.53;;;9.50;99.90;;;;;;5031150;28;20468;-67
2020/12/13 01:43:20;;;;;;;44.53;28.33;;;9.50;99.90;;;;;;5031381;28;20531;-66
2020/12/13 01:45:46;;;;;;;44.67;24.73;;;9.50;99.90;;;;;;5031363;28;20463;-67
2020/12/13 01:48:12;;;;;;;47.77;26.57;;;9.50;99.90;;;;;;5031334;28;20443;-67
2020/12/13 01:50:43;;;;;;;50.80;25.77;;;9.50;99.90;;;;;;5034443;28;20456;-67
2020/12/13 01:53:17;;;;;;;40.83;26.60;;;9.50;99.90;;;;;;5035383;28;20476;-67
2020/12/13 01:55:44;;;;;;;41.87;26.90;;;9.40;99.90;;;;;;5035418;28;20445;-67
2020/12/13 01:58:17;;;;;;;39.07;24.87;;;9.40;99.90;;;;;;5035200;28;20453;-66
2020/12/13 02:00:47;;;;;;;46.10;25.67;;;9.40;99.90;;;;;;5034774;28;20472;-68
2020/12/13 02:03:20;;;;;;;46.67;29.57;;;9.40;99.90;;;;;;5035143;28;20507;-67
2020/12/13 02:05:58;;;;;;;41.20;25.13;;;9.40;99.90;;;;;;5035054;28;20487;-67
2020/12/13 02:08:37;;;;;;;59.40;30.40;;;9.40;99.90;;;;;;5034976;28;20451;-66
2020/12/13 02:11:04;;;;;;;45.03;27.30;;;9.30;99.90;;;;;;5035206;28;20815;-66
2020/12/13 02:13:30;;;;;;;48.83;29.07;;;9.30;99.90;;;;;;5034988;28;20440;-66
2020/12/13 02:15:56;;;;;;;51.07;26.67;;;9.40;99.90;;;;;;5035092;28;20445;-67
2020/12/13 02:18:23;;;;;;;49.77;27.90;;;9.40;99.90;;;;;;5034967;28;20437;-67
2020/12/13 02:20:49;;;;;;;48.63;28.10;;;9.40;99.90;;;;;;5034405;28;20457;-66
2020/12/13 02:23:17;;;;;;;50.47;28.43;;;9.40;99.90;;;;;;5034996;28;20495;-67
2020/12/13 02:25:43;;;;;;;49.67;28.40;;;9.40;99.90;;;;;;5034790;28;20441;-68
2020/12/13 02:28:09;;;;;;;46.60;28.33;;;9.40;99.90;;;;;;5034721;28;20459;-67
2020/12/13 02:30:35;;;;;;;47.23;28.20;;;9.40;99.90;;;;;;5034342;28;20465;-67
2020/12/13 02:33:02;;;;;;;45.33;27.80;;;9.30;99.90;;;;;;5034445;28;20433;-67
2020/12/13 02:35:28;;;;;;;48.37;27.13;;;9.40;99.90;;;;;;5034562;28;20799;-67
2020/12/13 02:37:54;;;;;;;45.73;27.03;;;9.40;99.90;;;;;;5034440;28;20460;-67
2020/12/13 02:40:22;;;;;;;44.80;27.77;;;9.40;99.90;;;;;;5034051;28;20461;-67
2020/12/13 02:42:48;;;;;;;40.87;26.37;;;9.40;99.90;;;;;;5034360;28;20548;-67
2020/12/13 02:45:14;;;;;;;47.40;29.87;;;9.40;99.90;;;;;;5034380;28;20443;-67
2020/12/13 02:47:40;;;;;;;42.03;27.70;;;9.40;99.90;;;;;;5034178;28;20448;-67
2020/12/13 02:50:07;;;;;;;47.40;28.70;;;9.40;99.90;;;;;;5034035;28;20457;-67
2020/12/13 02:52:34;;;;;;;45.27;30.27;;;9.30;99.90;;;;;;5034160;28;20438;-67
2020/12/13 02:55:00;;;;;;;45.37;29.70;;;9.30;99.90;;;;;;5034122;28;20453;-66
2020/12/13 02:57:27;;;;;;;47.00;25.50;;;9.30;99.90;;;;;;5034356;28;20445;-66
2020/12/13 02:59:53;;;;;;;43.50;28.60;;;9.30;99.90;;;;;;5033711;28;20481;-67
2020/12/13 03:02:19;;;;;;;39.00;27.30;;;9.20;99.90;;;;;;5032982;28;20444;-67
2020/12/13 03:04:46;;;;;;;37.70;25.23;;;9.20;99.90;;;;;;5033931;28;20445;-66
2020/12/13 03:07:12;;;;;;;34.70;25.27;;;9.20;99.90;;;;;;5034044;28;20452;-66
2020/12/13 03:09:39;;;;;;;32.30;23.47;;;9.20;99.90;;;;;;5033904;28;20450;-67
2020/12/13 03:12:05;;;;;;;35.63;23.53;;;9.20;99.90;;;;;;5033728;28;20459;-66
2020/12/13 03:14:33;;;;;;;31.00;21.97;;;9.20;99.90;;;;;;5033933;28;20441;-67
2020/12/13 03:16:59;;;;;;;32.63;22.30;;;9.20;99.90;;;;;;5033917;28;20437;-66
2020/12/13 03:19:25;;;;;;;30.33;21.93;;;9.20;99.90;;;;;;5033737;28;20445;-67
2020/12/13 03:21:52;;;;;;;35.93;22.77;;;9.20;99.90;;;;;;5033339;28;20943;-66
2020/12/13 03:24:18;;;;;;;33.27;24.30;;;9.20;99.90;;;;;;5033944;28;21026;-67
2020/12/13 03:26:44;;;;;;;32.10;23.00;;;9.20;99.90;;;;;;5033689;28;20448;-66
2020/12/13 03:29:10;;;;;;;34.37;23.10;;;9.20;99.90;;;;;;5033547;28;20895;-66
2020/12/13 03:31:37;;;;;;;33.37;22.40;;;9.20;99.90;;;;;;5033228;28;20479;-66
2020/12/13 03:34:04;;;;;;;29.80;21.30;;;9.20;99.90;;;;;;5033297;28;20484;-66
2020/12/13 03:36:30;;;;;;;31.10;20.57;;;9.20;99.90;;;;;;5033493;28;20444;-65
2020/12/13 03:38:57;;;;;;;37.43;23.50;;;9.20;99.90;;;;;;5033436;28;20823;-66
2020/12/13 03:41:23;;;;;;;33.53;21.93;;;9.20;99.90;;;;;;5032897;28;20464;-66
2020/12/13 03:43:49;;;;;;;34.87;22.13;;;9.20;99.90;;;;;;5034127;28;20481;-68
2020/12/13 03:46:16;;;;;;;34.97;22.57;;;9.20;99.90;;;;;;5034304;28;20461;-67
2020/12/13 03:48:43;;;;;;;35.03;25.00;;;9.20;99.90;;;;;;5035428;28;20440;-67
2020/12/13 03:51:09;;;;;;;33.97;22.60;;;9.20;99.90;;;;;;5035794;28;20833;-68
2020/12/13 03:53:35;;;;;;;32.33;20.40;;;9.20;99.90;;;;;;5036663;28;20511;-68
2020/12/13 03:56:01;;;;;;;31.80;21.93;;;9.20;99.90;;;;;;5036818;28;20456;-68
2020/12/13 03:58:28;;;;;;;31.00;22.47;;;9.20;99.90;;;;;;5034224;28;20453;-68
2020/12/13 04:00:54;;;;;;;34.80;25.33;;;9.20;99.90;;;;;;5033399;28;20468;-67
2020/12/13 04:03:20;;;;;;;40.13;23.40;;;9.20;99.90;;;;;;5033741;28;20485;-67
2020/12/13 04:05:47;;;;;;;35.73;24.23;;;9.20;99.90;;;;;;5033789;28;20437;-67
2020/12/13 04:08:13;;;;;;;35.97;24.93;;;9.20;99.90;;;;;;5033464;28;20445;-68
2020/12/13 04:10:40;;;;;;;33.43;24.97;;;9.20;99.90;;;;;;5032992;28;20467;-67
2020/12/13 04:13:06;;;;;;;33.10;24.60;;;9.20;99.90;;;;;;5033082;28;20447;-67
2020/12/13 04:15:32;;;;;;;34.13;21.97;;;9.20;99.90;;;;;;5033346;28;20456;-67
2020/12/13 04:17:58;;;;;;;30.93;22.30;;;9.20;99.90;;;;;;5033168;28;20437;-66
2020/12/13 04:20:25;;;;;;;38.93;26.60;;;9.20;99.90;;;;;;5032743;28;20469;-67
2020/12/13 04:22:52;;;;;;;33.27;24.30;;;9.30;99.90;;;;;;5032718;28;20489;-68
2020/12/13 04:25:18;;;;;;;31.83;22.87;;;9.30;99.90;;;;;;5033429;28;20451;-68
2020/12/13 04:27:45;;;;;;;31.33;23.80;;;9.20;99.90;;;;;;5033793;28;20963;-66
2020/12/13 04:30:11;;;;;;;29.03;22.10;;;9.20;99.90;;;;;;5032543;28;20580;-68
2020/12/13 04:32:38;;;;;;;31.77;21.93;;;9.20;99.90;;;;;;5032676;28;20444;-68
2020/12/13 04:35:04;;;;;;;33.80;23.67;;;9.20;99.90;;;;;;5032649;28;20456;-68
2020/12/13 04:37:31;;;;;;;32.10;23.27;;;9.20;99.90;;;;;;5032912;28;20448;-68
2020/12/13 04:39:58;;;;;;;31.90;22.10;;;9.20;99.90;;;;;;5032530;28;20465;-67
2020/12/13 04:42:24;;;;;;;34.80;23.37;;;9.20;99.90;;;;;;5032709;28;20570;-68
2020/12/13 04:44:52;;;;;;;30.90;21.87;;;9.20;99.90;;;;;;5033050;28;21041;-68
2020/12/13 04:47:19;;;;;;;33.70;23.23;;;9.20;99.90;;;;;;5032685;28;20787;-67
2020/12/13 04:49:48;;;;;;;31.03;22.53;;;9.20;99.90;;;;;;5032513;28;20453;-69
2020/12/13 04:52:14;;;;;;;33.13;22.40;;;9.20;99.90;;;;;;5032898;28;20456;-68
2020/12/13 04:54:48;;;;;;;26.67;19.30;;;9.20;99.90;;;;;;5032845;28;20438;-68
2020/12/13 04:57:16;;;;;;;27.70;20.47;;;9.10;99.90;;;;;;5032897;28;20453;-69
2020/12/13 04:59:42;;;;;;;26.87;18.47;;;9.20;99.90;;;;;;5032446;28;20523;-67
2020/12/13 05:02:11;;;;;;;33.90;19.77;;;9.10;99.90;;;;;;5032445;28;20453;-67
2020/12/13 05:04:38;;;;;;;29.00;19.97;;;9.10;99.90;;;;;;5032745;28;20484;-67
2020/12/13 05:07:04;;;;;;;26.27;18.43;;;9.20;99.90;;;;;;5032802;28;20456;-67
2020/12/13 05:09:30;;;;;;;25.13;17.73;;;9.20;99.90;;;;;;5032565;28;20445;-67
2020/12/13 05:11:56;;;;;;;26.37;18.20;;;9.20;99.90;;;;;;5032300;28;20445;-67
2020/12/13 05:14:24;;;;;;;25.83;19.43;;;9.10;99.90;;;;;;5032384;28;20919;-67
2020/12/13 05:16:50;;;;;;;26.30;17.57;;;9.10;99.90;;;;;;5032368;28;20441;-68
2020/12/13 05:19:16;;;;;;;26.90;18.80;;;9.10;99.90;;;;;;5035901;28;20445;-69
2020/12/13 05:21:43;;;;;;;23.77;17.03;;;9.10;99.90;;;;;;5035006;28;20465;-66
2020/12/13 05:24:11;;;;;;;20.70;17.00;;;9.10;99.90;;;;;;5033051;28;20905;-68
2020/12/13 05:26:37;;;;;;;20.53;16.97;;;9.10;99.90;;;;;;5031660;28;20958;-67
2020/12/13 05:29:05;;;;;;;30.77;16.27;;;9.10;99.90;;;;;;5031349;28;20437;-67
2020/12/13 05:31:41;;;;;;;23.63;17.30;;;9.00;99.90;;;;;;5031165;28;20464;-67
2020/12/13 05:34:15;;;;;;;23.73;17.20;;;9.00;99.90;;;;;;5031617;28;20443;-66
2020/12/13 05:36:43;;;;;;;18.57;14.60;;;9.00;99.90;;;;;;5031392;28;20448;-66
2020/12/13 05:39:10;;;;;;;21.53;17.13;;;9.10;99.90;;;;;;5031334;28;20835;-67
2020/12/13 05:41:37;;;;;;;22.37;15.37;;;9.00;99.90;;;;;;5031202;28;20462;-67
2020/12/13 05:44:15;;;;;;;19.43;14.27;;;9.00;99.90;;;;;;5031285;28;20524;-66
2020/12/13 05:46:52;;;;;;;20.10;15.50;;;9.00;99.90;;;;;;5031411;28;20445;-66
2020/12/13 05:49:41;;;;;;;19.13;14.13;;;9.00;99.90;;;;;;5031486;28;20444;-66
2020/12/13 05:52:09;;;;;;;21.50;13.60;;;9.00;99.90;;;;;;5031504;28;20441;-66
2020/12/13 05:54:36;;;;;;;16.30;12.93;;;9.00;99.90;;;;;;5031538;28;20439;-66
2020/12/13 05:57:03;;;;;;;17.20;13.77;;;9.00;99.90;;;;;;5031381;28;20444;-67
2020/12/13 05:59:31;;;;;;;15.97;12.77;;;9.00;99.90;;;;;;5031105;28;20460;-67
2020/12/13 06:02:00;;;;;;;17.20;13.93;;;8.90;99.90;;;;;;5031105;28;20448;-67
2020/12/13 06:04:27;;;;;;;17.33;12.43;;;8.90;99.90;;;;;;5031034;28;21029;-67
2020/12/13 06:06:55;;;;;;;19.17;14.30;;;8.90;99.90;;;;;;5031367;28;20943;-67
2020/12/13 06:09:32;;;;;;;18.40;12.80;;;8.90;99.90;;;;;;5031384;28;20441;-67
2020/12/13 06:12:01;;;;;;;20.40;12.83;;;8.80;99.90;;;;;;5031107;28;20857;-67
2020/12/13 06:14:28;;;;;;;21.17;15.33;;;8.80;99.90;;;;;;5031200;28;20483;-67
2020/12/13 06:16:56;;;;;;;23.03;15.10;;;8.80;99.90;;;;;;5031209;28;20441;-67
2020/12/13 06:19:25;;;;;;;23.70;15.07;;;8.70;99.90;;;;;;5031207;28;20812;-67
2020/12/13 06:21:54;;;;;;;22.57;15.37;;;8.70;99.90;;;;;;5030785;28;20453;-66
2020/12/13 06:24:21;;;;;;;24.67;17.17;;;8.70;99.90;;;;;;5030949;28;20487;-66
2020/12/13 06:26:48;;;;;;;24.40;17.47;;;8.70;99.90;;;;;;5031137;28;20437;-66
2020/12/13 06:29:15;;;;;;;30.63;18.37;;;8.70;99.90;;;;;;5030969;28;20452;-67
2020/12/13 06:31:42;;;;;;;27.33;17.33;;;8.70;99.90;;;;;;5030710;28;20522;-66
2020/12/13 06:34:09;;;;;;;26.80;17.50;;;8.60;99.90;;;;;;5030981;28;20495;-67
2020/12/13 06:36:37;;;;;;;29.13;19.10;;;8.60;99.90;;;;;;5034129;28;20437;-66
2020/12/13 06:39:12;;;;;;;27.60;18.80;;;8.70;99.90;;;;;;5034768;28;20445;-67
2020/12/13 06:41:38;;;;;;;28.93;18.40;;;8.70;99.90;;;;;;5034450;28;20892;-66
2020/12/13 06:44:06;;;;;;;25.57;17.30;;;8.70;99.90;;;;;;5034513;28;20481;-67
2020/12/13 06:46:38;;;;;;;28.00;19.23;;;8.60;99.90;;;;;;5034769;28;20480;-67
2020/12/13 06:49:04;;;;;;;26.03;18.60;;;8.60;99.90;;;;;;5034491;28;20437;-67
2020/12/13 06:51:33;;;;;;;33.60;19.73;;;8.50;99.90;;;;;;5034007;28;20457;-67
2020/12/13 06:54:00;;;;;;;31.93;20.43;;;8.50;99.90;;;;;;5034372;28;20923;-67
2020/12/13 06:56:27;;;;;;;32.97;19.67;;;8.50;99.90;;;;;;5034185;28;20441;-68
2020/12/13 06:58:57;;;;;;;31.50;19.07;;;8.40;99.90;;;;;;5033993;28;20931;-68
2020/12/13 07:01:26;;;;;;;24.67;16.90;;;8.40;99.90;;;;;;5034086;28;20492;-68
2020/12/13 07:03:53;;;;;;;30.07;17.43;;;8.40;99.90;;;;;;5034056;28;20484;-67
2020/12/13 07:06:23;;;;;;;22.13;16.93;;;8.40;99.90;;;;;;5034023;28;20448;-68
2020/12/13 07:08:54;;;;;;;34.80;16.97;;;8.30;99.90;;;;;;5033934;28;20452;-68
2020/12/13 07:11:23;;;;;;;23.07;15.73;;;8.30;99.90;;;;;;5033625;28;20465;-68
2020/12/13 07:13:51;;;;;;;25.30;16.37;;;8.20;99.90;;;;;;5033866;28;20445;-67
2020/12/13 07:16:30;;;;;;;26.60;16.20;;;8.20;99.90;;;;;;5033911;28;20441;-67
2020/12/13 07:19:02;;;;;;;28.53;17.60;;;8.20;99.90;;;;;;5033797;28;20943;-67
2020/12/13 07:21:29;;;;;;;25.67;17.93;;;8.20;99.90;;;;;;5033662;28;20468;-68
2020/12/13 07:23:57;;;;;;;27.50;17.20;;;8.10;99.90;;;;;;5033644;28;20481;-68
2020/12/13 07:26:26;;;;;;;29.60;18.20;;;8.10;99.90;;;;;;5033558;28;20488;-68
2020/12/13 07:28:54;;;;;;;29.83;18.87;;;8.10;99.90;;;;;;5033682;28;20491;-67
2020/12/13 07:31:20;;;;;;;24.20;18.20;;;8.10;99.90;;;;;;5033225;28;20457;-68
2020/12/13 07:33:47;;;;;;;26.50;18.50;;;8.10;99.90;;;;;;5033527;28;20449;-67
2020/12/13 07:36:13;;;;;;;28.40;19.33;;;8.10;99.90;;;;;;5033420;28;20445;-67
2020/12/13 07:38:40;;;;;;;25.73;17.67;;;8.10;99.90;;;;;;5033139;28;20441;-67
2020/12/13 07:41:14;;;;;;;27.97;16.53;;;8.10;99.90;;;;;;5032993;28;20461;-67
2020/12/13 07:43:54;;;;;;;32.03;18.13;;;8.10;99.90;;;;;;5033560;28;20513;-67
2020/12/13 07:46:21;;;;;;;28.37;18.60;;;8.10;99.90;;;;;;5032746;28;20444;-69
2020/12/13 07:48:48;;;;;;;27.60;18.20;;;8.20;99.90;;;;;;5034354;28;20456;-70
2020/12/13 07:51:16;;;;;;;23.80;15.63;;;8.20;99.90;;;;;;5036906;28;20465;-71
2020/12/13 07:53:42;;;;;;;20.43;16.00;;;8.20;99.90;;;;;;5035770;28;20495;-70
2020/12/13 07:56:27;;;;;;;28.90;15.73;;;8.30;99.90;;;;;;5034948;28;20957;-69
2020/12/13 07:59:12;;;;;;;22.83;16.27;;;8.30;99.90;;;;;;5033300;28;20875;-68
2020/12/13 08:01:39;;;;;;;25.37;14.87;;;8.30;99.90;;;;;;5032878;28;21201;-67
2020/12/13 08:04:06;;;;;;;19.27;14.27;;;8.30;99.90;;;;;;5032936;28;20572;-68
2020/12/13 08:06:33;;;;;;;18.33;14.03;;;8.30;99.90;;;;;;5032968;28;20528;-68
2020/12/13 08:09:00;;;;;;;18.17;14.50;;;8.40;99.90;;;;;;5032936;28;20452;-68
2020/12/13 08:11:26;;;;;;;24.60;15.20;;;8.40;99.90;;;;;;5032785;28;20473;-67
2020/12/13 08:13:54;;;;;;;22.10;15.70;;;8.40;99.90;;;;;;5036699;28;20528;-67
2020/12/13 08:16:25;;;;;;;21.73;13.70;;;8.50;99.90;;;;;;5032499;28;20814;-66
2020/12/13 08:18:55;;;;;;;20.30;13.70;;;8.50;99.90;;;;;;5032691;28;20480;-69
2020/12/13 08:21:29;;;;;;;15.07;11.50;;;8.50;99.90;;;;;;5032422;28;20540;-69
2020/12/13 08:23:57;;;;;;;18.97;13.77;;;8.60;99.90;;;;;;5032759;28;20531;-67
2020/12/13 08:26:25;;;;;;;14.97;12.43;;;8.60;99.90;;;;;;5032519;28;20449;-68
2020/12/13 08:28:54;;;;;;;15.97;13.70;;;8.60;99.90;;;;;;5032191;28;20499;-69
2020/12/13 08:31:28;;;;;;;19.13;12.63;;;8.60;99.90;;;;;;5033661;28;20518;-69
2020/12/13 08:34:03;;;;;;;15.43;12.97;;;8.70;99.90;;;;;;5032243;28;20441;-67
2020/12/13 08:36:30;;;;;;;18.97;14.10;;;8.60;99.90;;;;;;5032101;28;20531;-68
2020/12/13 08:39:04;;;;;;;20.97;11.73;;;8.70;99.90;;;;;;5036526;28;20480;-69
2020/12/13 08:41:31;;;;;;;14.47;10.93;;;8.70;99.90;;;;;;5036247;28;20449;-69
2020/12/13 08:43:58;;;;;;;16.07;13.57;;;8.70;99.90;;;;;;5035405;28;20543;-69
2020/12/13 08:46:33;;;;;;;17.70;11.17;;;8.80;99.90;;;;;;5032558;28;20468;-68
2020/12/13 08:49:00;;;;;;;16.43;12.53;;;8.80;99.90;;;;;;5032229;28;20533;-68
2020/12/13 08:51:29;;;;;;;19.27;11.80;;;8.80;99.90;;;;;;5031433;28;20556;-68
2020/12/13 08:54:01;;;;;;;20.40;11.40;;;8.90;99.90;;;;;;5032112;28;20449;-71
2020/12/13 08:56:36;;;;;;;17.50;10.90;;;8.90;99.90;;;;;;5031890;28;20444;-67
2020/12/13 08:59:05;;;;;;;13.30;10.27;;;8.90;99.90;;;;;;5031043;28;20562;-68
2020/12/13 09:01:35;;;;;;;14.20;11.30;;;8.90;99.90;;;;;;5031683;28;20516;-68
2020/12/13 09:04:17;;;;;;;12.40;11.10;;;8.90;99.90;;;;;;5031714;28;20484;-69
2020/12/13 09:06:53;;;;;;;13.60;10.67;;;9.00;99.90;;;;;;5031905;28;20448;-67
2020/12/13 09:09:21;;;;;;;16.37;11.13;;;9.00;99.90;;;;;;5031703;28;20448;-70
2020/12/13 09:11:48;;;;;;;12.30;9.67;;;9.00;99.90;;;;;;5031470;28;20522;-68
2020/12/13 09:14:26;;;;;;;16.27;11.13;;;9.00;99.90;;;;;;5031752;28;20476;-68
2020/12/13 09:17:00;;;;;;;16.63;10.40;;;9.10;99.90;;;;;;5032026;28;20448;-69
2020/12/13 09:19:27;;;;;;;17.27;11.77;;;9.20;99.90;;;;;;5030957;28;20962;-68
2020/12/13 09:21:56;;;;;;;18.33;12.33;;;9.30;99.90;;;;;;5030721;28;20493;-68
2020/12/13 09:24:24;;;;;;;15.97;10.70;;;9.50;99.90;;;;;;5031463;28;20500;-67
2020/12/13 09:27:02;;;;;;;11.60;10.10;;;9.60;99.90;;;;;;5032491;28;20878;-69
2020/12/13 09:29:29;;;;;;;15.20;10.63;;;9.70;99.90;;;;;;5031582;28;20502;-67
2020/12/13 09:31:57;;;;;;;13.30;10.33;;;9.80;99.90;;;;;;5030767;28;20434;-69
2020/12/13 09:34:24;;;;;;;17.80;9.60;;;9.90;99.90;;;;;;5031489;28;20875;-68
2020/12/13 09:36:51;;;;;;;20.00;10.33;;;10.10;99.90;;;;;;5031481;28;20530;-69
2020/12/13 09:39:18;;;;;;;13.13;10.83;;;10.30;99.90;;;;;;5033331;28;20477;-69
2020/12/13 09:41:44;;;;;;;11.57;10.47;;;10.50;99.90;;;;;;5031681;28;20507;-69
2020/12/13 09:44:12;;;;;;;13.80;12.37;;;10.70;99.90;;;;;;5031547;28;20571;-69
2020/12/13 09:46:39;;;;;;;14.10;10.70;;;10.90;99.90;;;;;;5032631;28;20483;-70
2020/12/13 09:49:06;;;;;;;18.33;12.70;;;11.20;99.90;;;;;;5032472;28;20441;-70
2020/12/13 09:51:33;;;;;;;13.80;11.90;;;11.20;99.90;;;;;;5030988;28;20515;-70
2020/12/13 09:54:00;;;;;;;19.40;13.63;;;11.30;99.90;;;;;;5031810;28;20480;-70
2020/12/13 09:56:26;;;;;;;14.83;13.53;;;11.30;99.90;;;;;;5031204;28;20531;-69
2020/12/13 09:58:53;;;;;;;15.17;12.70;;;11.20;99.90;;;;;;5031059;28;20850;-70
2020/12/13 10:01:20;;;;;;;14.63;13.20;;;11.10;99.90;;;;;;5031017;28;20460;-70
2020/12/13 10:03:51;;;;;;;14.37;13.10;;;11.10;99.90;;;;;;5031177;28;20826;-70
2020/12/13 10:09:08;;;;;;;13.77;12.70;;;11.10;99.90;;;;;;5027299;28;20430;-69
2020/12/13 10:11:37;;;;;;;18.90;17.23;;;11.10;99.90;;;;;;5034031;28;20492;-70
2020/12/13 10:14:04;;;;;;;14.60;13.27;;;11.20;99.90;;;;;;5034919;28;20448;-69
2020/12/13 10:16:31;;;;;;;15.90;14.70;;;11.20;99.90;;;;;;5035049;28;20863;-70
2020/12/13 10:18:57;;;;;;;18.13;16.50;;;11.20;99.90;;;;;;5034929;28;20451;-69
2020/12/13 10:21:26;;;;;;;17.53;16.00;;;11.20;99.90;;;;;;5034546;28;20471;-69
2020/12/13 10:23:53;;;;;;;17.10;15.37;;;11.20;99.90;;;;;;5034673;28;20481;-69
2020/12/13 10:26:23;;;;;;;16.83;15.10;;;11.30;99.90;;;;;;5034735;28;20436;-68
2020/12/13 10:28:52;;;;;;;17.40;15.57;;;11.30;99.90;;;;;;5034591;28;20445;-69
2020/12/13 10:31:18;;;;;;;16.83;15.53;;;11.30;99.90;;;;;;5034666;28;20464;-68
2020/12/13 10:33:45;;;;;;;17.63;16.40;;;11.30;99.90;;;;;;5034670;28;20536;-69
2020/12/13 10:36:13;;;;;;;16.23;15.03;;;11.30;99.90;;;;;;5034446;28;20528;-68
2020/12/13 10:38:40;;;;;;;16.83;15.70;;;11.20;99.90;;;;;;5034314;28;20922;-69
2020/12/13 10:41:07;;;;;;;17.03;15.67;;;11.20;99.90;;;;;;5033961;28;20532;-69
2020/12/13 10:43:35;;;;;;;16.80;15.40;;;11.20;99.90;;;;;;5034291;28;20994;-69
2020/12/13 10:46:05;;;;;;;15.60;14.27;;;11.20;99.90;;;;;;5034432;28;20441;-67
2020/12/13 10:48:33;;;;;;;17.70;16.30;;;11.10;99.90;;;;;;5034238;28;20450;-68
2020/12/13 10:51:00;;;;;;;17.93;16.30;;;11.10;99.90;;;;;;5034166;28;20464;-69
2020/12/13 10:53:27;;;;;;;17.90;16.30;;;11.10;99.90;;;;;;5033506;28;20579;-69
2020/12/13 10:55:54;;;;;;;18.00;16.17;;;11.00;99.90;;;;;;5034174;28;20447;-69
2020/12/13 10:58:21;;;;;;;15.80;14.70;;;10.90;99.90;;;;;;5034343;28;20441;-68
2020/12/13 11:00:48;;;;;;;17.27;15.97;;;10.90;99.90;;;;;;5033755;28;20508;-69
2020/12/13 11:03:15;;;;;;;15.93;14.67;;;10.90;99.90;;;;;;5034050;28;20974;-68
2020/12/13 11:05:42;;;;;;;18.63;17.33;;;10.90;99.90;;;;;;5033861;28;20444;-67
2020/12/13 11:08:08;;;;;;;16.30;15.07;;;11.10;99.90;;;;;;5033923;28;20437;-68
2020/12/13 11:10:34;;;;;;;16.90;15.30;;;11.20;99.90;;;;;;5033425;28;20461;-69
2020/12/13 11:13:01;;;;;;;17.00;15.83;;;11.30;99.90;;;;;;5034175;28;20441;-68
2020/12/13 11:15:27;;;;;;;16.00;14.70;;;11.30;99.90;;;;;;5033748;28;20440;-69
2020/12/13 11:17:54;;;;;;;16.43;15.33;;;11.40;99.90;;;;;;5033938;28;20441;-69
2020/12/13 11:20:20;;;;;;;16.97;15.57;;;11.60;99.90;;;;;;5033495;28;20460;-67
2020/12/13 11:22:46;;;;;;;16.70;15.50;;;11.80;99.90;;;;;;5032537;28;20453;-67
2020/12/13 11:25:13;;;;;;;15.83;14.80;;;11.90;99.90;;;;;;5033399;28;20523;-68
2020/12/13 11:27:42;;;;;;;16.30;14.90;;;12.00;99.90;;;;;;5033640;28;20840;-66
2020/12/13 11:30:10;;;;;;;16.20;15.20;;;12.00;99.90;;;;;;5033232;28;20466;-71
2020/12/13 11:32:37;;;;;;;18.43;17.03;;;12.00;99.90;;;;;;5033646;28;20849;-68
2020/12/13 11:35:03;;;;;;;15.93;14.83;;;12.00;99.90;;;;;;5033374;28;20437;-68
2020/12/13 11:37:30;;;;;;;15.13;14.23;;;12.10;99.90;;;;;;5033732;28;20464;-70
2020/12/13 11:39:57;;;;;;;15.73;14.73;;;12.10;99.90;;;;;;5033260;28;20469;-69
2020/12/13 11:42:23;;;;;;;14.80;14.10;;;12.30;99.90;;;;;;5033026;28;20449;-67
2020/12/13 11:44:49;;;;;;;15.57;14.60;;;12.80;99.90;;;;;;5033092;28;20476;-67
2020/12/13 11:47:17;;;;;;;18.13;16.73;;;14.00;99.90;;;;;;5033273;28;20468;-68
2020/12/13 11:49:43;;;;;;;16.37;15.50;;;15.20;99.50;;;;;;5032926;28;20966;-68
2020/12/13 11:52:09;;;;;;;16.40;15.60;;;16.20;95.40;;;;;;5032791;28;20447;-69
2020/12/13 11:54:36;;;;;;;17.83;16.93;;;17.30;90.00;;;;;;5032954;28;20444;-69
2020/12/13 11:57:03;;;;;;;18.33;17.53;;;17.40;76.70;;;;;;5032948;28;20445;-66
2020/12/13 11:59:30;;;;;;;19.10;18.00;;;16.90;73.90;;;;;;5032796;28;20882;-68
2020/12/13 12:01:56;;;;;;;18.50;17.57;;;16.60;74.70;;;;;;5032775;28;21313;-69
2020/12/13 12:04:23;;;;;;;19.00;17.90;;;16.80;74.10;;;;;;5032635;28;20476;-69
2020/12/13 12:06:50;;;;;;;19.13;18.00;;;17.00;73.80;;;;;;5032984;28;20437;-70
2020/12/13 12:09:17;;;;;;;18.97;18.07;;;17.20;72.60;;;;;;5032988;28;20529;-70
2020/12/13 12:11:43;;;;;;;20.43;19.23;;;17.20;70.00;;;;;;5032755;28;20467;-69
2020/12/13 12:14:10;;;;;;;19.13;18.13;;;17.60;70.10;;;;;;5032813;28;20444;-69
2020/12/13 12:16:38;;;;;;;18.60;17.80;;;18.10;65.40;;;;;;5033088;28;20907;-69
2020/12/13 12:19:04;;;;;;;18.93;18.10;;;18.70;63.90;;;;;;5032901;28;20524;-70
2020/12/13 12:21:33;;;;;;;19.00;18.17;;;19.00;60.20;;;;;;5032532;28;20989;-70
2020/12/13 12:24:00;;;;;;;20.17;18.90;;;19.10;59.20;;;;;;5033045;28;21097;-70
2020/12/13 12:26:30;;;;;;;20.23;19.20;;;19.70;58.30;;;;;;5033485;28;20459;-69
2020/12/13 12:28:57;;;;;;;19.50;18.70;;;19.90;55.40;;;;;;5033708;28;20498;-68
2020/12/13 12:31:24;;;;;;;19.97;18.93;;;18.50;55.20;;;;;;5032180;28;20560;-69
2020/12/13 12:33:50;;;;;;;21.10;20.00;;;17.60;57.20;;;;;;5032148;28;20437;-70
2020/12/13 12:36:18;;;;;;;19.87;18.83;;;16.70;59.80;;;;;;5032369;28;20448;-69
2020/12/13 12:38:46;;;;;;;20.30;19.23;;;15.90;63.10;;;;;;5032164;28;20437;-68
2020/12/13 12:41:14;;;;;;;19.17;18.20;;;15.50;65.60;;;;;;5031885;28;20465;-69